< < Back
Terminal Aerodrome Forecast


Current Version              Previous Versions:   1  2  3  4  5  6  7  8  9  

Terminal Aerodrome Forecast

299
FTUS44 KMOB 241700
TAFPNS
TAF
KPNS 241723Z 2418/2518 15010KT P6SM SCT030
     FM250000 19010KT P6SM SCT010
     FM250900 20006KT 4SM BR OVC007
      TEMPO 2510/2513 1/2SM FG VV001
     FM251500 27007KT P6SM OVC015=



Latest METAR

777
SAUS70 KWBC 241700 RRI
MTRPNS
METAR KPNS 241653Z 15010KT 10SM FEW018 25/18 A2999 RMK AO2 SLP158
T02500183


USA.gov is the U.S. government's official web portal to all federal, state and local government web resources and services.